sensor_id;sensor_type;location;lat;lon;timestamp;P1;durP1;ratioP1;P2;durP2;ratioP2
5684;SDS011;2865;53.114;9.130;2023-04-06T00:01:33;13.70;;;11.27;;
5684;SDS011;2865;53.114;9.130;2023-04-06T00:03:59;10.73;;;9.70;;
5684;SDS011;2865;53.114;9.130;2023-04-06T00:06:24;11.53;;;10.43;;
5684;SDS011;2865;53.114;9.130;2023-04-06T00:08:49;9.90;;;8.97;;
5684;SDS011;2865;53.114;9.130;2023-04-06T00:11:15;12.77;;;9.57;;
5684;SDS011;2865;53.114;9.130;2023-04-06T00:13:40;11.77;;;10.73;;
5684;SDS011;2865;53.114;9.130;2023-04-06T00:16:06;13.30;;;11.90;;
5684;SDS011;2865;53.114;9.130;2023-04-06T00:18:31;13.97;;;11.57;;
5684;SDS011;2865;53.114;9.130;2023-04-06T00:20:57;12.87;;;11.50;;
5684;SDS011;2865;53.114;9.130;2023-04-06T00:23:22;13.77;;;10.87;;
5684;SDS011;2865;53.114;9.130;2023-04-06T00:25:47;13.50;;;10.97;;
5684;SDS011;2865;53.114;9.130;2023-04-06T00:28:13;12.87;;;11.07;;
5684;SDS011;2865;53.114;9.130;2023-04-06T00:30:38;11.90;;;10.47;;
5684;SDS011;2865;53.114;9.130;2023-04-06T00:33:03;15.83;;;10.03;;
5684;SDS011;2865;53.114;9.130;2023-04-06T00:35:29;11.70;;;9.97;;
5684;SDS011;2865;53.114;9.130;2023-04-06T00:37:55;11.07;;;9.97;;
5684;SDS011;2865;53.114;9.130;2023-04-06T00:40:20;11.17;;;10.07;;
5684;SDS011;2865;53.114;9.130;2023-04-06T00:42:45;11.10;;;10.00;;
5684;SDS011;2865;53.114;9.130;2023-04-06T00:45:11;16.13;;;11.07;;
5684;SDS011;2865;53.114;9.130;2023-04-06T00:47:36;12.27;;;9.90;;
5684;SDS011;2865;53.114;9.130;2023-04-06T00:50:02;11.40;;;10.13;;
5684;SDS011;2865;53.114;9.130;2023-04-06T00:52:28;10.73;;;9.53;;
5684;SDS011;2865;53.114;9.130;2023-04-06T00:54:53;12.70;;;10.20;;
5684;SDS011;2865;53.114;9.130;2023-04-06T00:57:18;11.60;;;10.10;;
5684;SDS011;2865;53.114;9.130;2023-04-06T00:59:44;11.50;;;10.30;;
5684;SDS011;2865;53.114;9.130;2023-04-06T01:02:09;13.83;;;11.17;;
5684;SDS011;2865;53.114;9.130;2023-04-06T01:04:35;11.73;;;10.53;;
5684;SDS011;2865;53.114;9.130;2023-04-06T01:07:00;10.50;;;9.43;;
5684;SDS011;2865;53.114;9.130;2023-04-06T01:09:27;11.53;;;10.07;;
5684;SDS011;2865;53.114;9.130;2023-04-06T01:11:52;11.97;;;10.13;;
5684;SDS011;2865;53.114;9.130;2023-04-06T01:14:18;12.17;;;10.33;;
5684;SDS011;2865;53.114;9.130;2023-04-06T01:16:43;12.27;;;9.77;;
5684;SDS011;2865;53.114;9.130;2023-04-06T01:19:09;18.03;;;10.47;;
5684;SDS011;2865;53.114;9.130;2023-04-06T01:21:34;9.40;;;8.50;;
5684;SDS011;2865;53.114;9.130;2023-04-06T01:24:00;12.03;;;9.70;;
5684;SDS011;2865;53.114;9.130;2023-04-06T01:26:25;11.43;;;8.93;;
5684;SDS011;2865;53.114;9.130;2023-04-06T01:28:50;8.80;;;8.00;;
5684;SDS011;2865;53.114;9.130;2023-04-06T01:31:16;11.17;;;9.80;;
5684;SDS011;2865;53.114;9.130;2023-04-06T01:33:41;11.50;;;8.40;;
5684;SDS011;2865;53.114;9.130;2023-04-06T01:36:07;10.47;;;9.20;;
5684;SDS011;2865;53.114;9.130;2023-04-06T01:38:32;9.33;;;8.13;;
5684;SDS011;2865;53.114;9.130;2023-04-06T01:40:58;9.50;;;8.60;;
5684;SDS011;2865;53.114;9.130;2023-04-06T01:43:23;10.40;;;9.40;;
5684;SDS011;2865;53.114;9.130;2023-04-06T01:45:49;10.87;;;9.47;;
5684;SDS011;2865;53.114;9.130;2023-04-06T01:48:14;11.30;;;9.63;;
5684;SDS011;2865;53.114;9.130;2023-04-06T01:50:39;10.77;;;8.30;;
5684;SDS011;2865;53.114;9.130;2023-04-06T01:53:05;9.00;;;8.10;;
5684;SDS011;2865;53.114;9.130;2023-04-06T01:55:30;9.67;;;8.70;;
5684;SDS011;2865;53.114;9.130;2023-04-06T01:57:56;9.97;;;8.13;;
5684;SDS011;2865;53.114;9.130;2023-04-06T02:00:21;9.90;;;8.90;;
5684;SDS011;2865;53.114;9.130;2023-04-06T02:02:46;11.80;;;8.17;;
5684;SDS011;2865;53.114;9.130;2023-04-06T02:05:12;10.33;;;9.20;;
5684;SDS011;2865;53.114;9.130;2023-04-06T02:07:37;11.30;;;9.40;;
5684;SDS011;2865;53.114;9.130;2023-04-06T02:10:03;10.03;;;8.77;;
5684;SDS011;2865;53.114;9.130;2023-04-06T02:12:29;20.73;;;9.80;;
5684;SDS011;2865;53.114;9.130;2023-04-06T02:14:54;10.27;;;9.17;;
5684;SDS011;2865;53.114;9.130;2023-04-06T02:17:20;9.87;;;8.90;;
5684;SDS011;2865;53.114;9.130;2023-04-06T02:19:45;9.47;;;8.57;;
5684;SDS011;2865;53.114;9.130;2023-04-06T02:22:11;10.43;;;8.53;;
5684;SDS011;2865;53.114;9.130;2023-04-06T02:24:37;11.77;;;9.17;;
5684;SDS011;2865;53.114;9.130;2023-04-06T02:27:02;10.40;;;9.40;;
5684;SDS011;2865;53.114;9.130;2023-04-06T02:29:28;12.40;;;9.80;;
5684;SDS011;2865;53.114;9.130;2023-04-06T02:31:53;9.70;;;8.80;;
5684;SDS011;2865;53.114;9.130;2023-04-06T02:34:18;11.83;;;9.30;;
5684;SDS011;2865;53.114;9.130;2023-04-06T02:36:44;10.70;;;8.80;;
5684;SDS011;2865;53.114;9.130;2023-04-06T02:39:09;13.30;;;8.63;;
5684;SDS011;2865;53.114;9.130;2023-04-06T02:41:35;12.47;;;10.50;;
5684;SDS011;2865;53.114;9.130;2023-04-06T02:44:00;11.80;;;8.90;;
5684;SDS011;2865;53.114;9.130;2023-04-06T02:46:26;9.80;;;8.90;;
5684;SDS011;2865;53.114;9.130;2023-04-06T02:48:51;10.23;;;8.87;;
5684;SDS011;2865;53.114;9.130;2023-04-06T02:51:16;12.77;;;9.10;;
5684;SDS011;2865;53.114;9.130;2023-04-06T02:53:42;9.90;;;9.00;;
5684;SDS011;2865;53.114;9.130;2023-04-06T02:56:07;12.50;;;10.10;;
5684;SDS011;2865;53.114;9.130;2023-04-06T02:58:33;10.43;;;8.80;;
5684;SDS011;2865;53.114;9.130;2023-04-06T03:00:58;18.00;;;8.70;;
5684;SDS011;2865;53.114;9.130;2023-04-06T03:03:24;10.13;;;9.13;;
5684;SDS011;2865;53.114;9.130;2023-04-06T03:05:49;11.67;;;10.47;;
5684;SDS011;2865;53.114;9.130;2023-04-06T03:08:14;12.17;;;10.20;;
5684;SDS011;2865;53.114;9.130;2023-04-06T03:10:40;10.90;;;9.80;;
5684;SDS011;2865;53.114;9.130;2023-04-06T03:13:05;11.43;;;10.33;;
5684;SDS011;2865;53.114;9.130;2023-04-06T03:15:31;11.57;;;10.47;;
5684;SDS011;2865;53.114;9.130;2023-04-06T03:17:57;11.50;;;9.10;;
5684;SDS011;2865;53.114;9.130;2023-04-06T03:20:22;11.63;;;10.43;;
5684;SDS011;2865;53.114;9.130;2023-04-06T03:22:47;13.33;;;10.50;;
5684;SDS011;2865;53.114;9.130;2023-04-06T03:25:13;11.83;;;10.60;;
5684;SDS011;2865;53.114;9.130;2023-04-06T03:27:38;14.80;;;9.90;;
5684;SDS011;2865;53.114;9.130;2023-04-06T03:30:04;11.30;;;9.87;;
5684;SDS011;2865;53.114;9.130;2023-04-06T03:32:31;12.05;;;10.40;;
5684;SDS011;2865;53.114;9.130;2023-04-06T03:34:56;11.87;;;10.17;;
5684;SDS011;2865;53.114;9.130;2023-04-06T03:37:21;11.50;;;10.30;;
5684;SDS011;2865;53.114;9.130;2023-04-06T03:39:47;15.47;;;10.07;;
5684;SDS011;2865;53.114;9.130;2023-04-06T03:42:13;12.97;;;10.73;;
5684;SDS011;2865;53.114;9.130;2023-04-06T03:44:39;10.57;;;9.57;;
5684;SDS011;2865;53.114;9.130;2023-04-06T03:47:04;12.20;;;11.00;;
5684;SDS011;2865;53.114;9.130;2023-04-06T03:49:29;11.57;;;10.40;;
5684;SDS011;2865;53.114;9.130;2023-04-06T03:51:55;12.30;;;11.10;;
5684;SDS011;2865;53.114;9.130;2023-04-06T03:54:20;13.53;;;11.47;;
5684;SDS011;2865;53.114;9.130;2023-04-06T03:56:46;13.30;;;10.53;;
5684;SDS011;2865;53.114;9.130;2023-04-06T03:59:11;15.70;;;10.30;;
5684;SDS011;2865;53.114;9.130;2023-04-06T04:01:37;12.80;;;11.30;;
5684;SDS011;2865;53.114;9.130;2023-04-06T04:04:03;11.80;;;10.70;;
5684;SDS011;2865;53.114;9.130;2023-04-06T04:06:28;12.43;;;10.50;;
5684;SDS011;2865;53.114;9.130;2023-04-06T04:08:54;11.47;;;10.30;;
5684;SDS011;2865;53.114;9.130;2023-04-06T04:11:19;11.73;;;10.37;;
5684;SDS011;2865;53.114;9.130;2023-04-06T04:13:45;11.37;;;10.27;;
5684;SDS011;2865;53.114;9.130;2023-04-06T04:16:10;12.93;;;9.80;;
5684;SDS011;2865;53.114;9.130;2023-04-06T04:18:35;14.20;;;10.30;;
5684;SDS011;2865;53.114;9.130;2023-04-06T04:21:01;11.77;;;10.43;;
5684;SDS011;2865;53.114;9.130;2023-04-06T04:23:26;10.73;;;9.63;;
5684;SDS011;2865;53.114;9.130;2023-04-06T04:25:52;11.20;;;9.93;;
5684;SDS011;2865;53.114;9.130;2023-04-06T04:28:17;11.77;;;10.63;;
5684;SDS011;2865;53.114;9.130;2023-04-06T04:30:43;11.50;;;10.40;;
5684;SDS011;2865;53.114;9.130;2023-04-06T04:33:08;15.90;;;10.70;;
5684;SDS011;2865;53.114;9.130;2023-04-06T04:35:33;12.70;;;11.30;;
5684;SDS011;2865;53.114;9.130;2023-04-06T04:37:59;11.30;;;10.10;;
5684;SDS011;2865;53.114;9.130;2023-04-06T04:40:24;12.40;;;10.30;;
5684;SDS011;2865;53.114;9.130;2023-04-06T04:42:50;11.70;;;10.57;;
5684;SDS011;2865;53.114;9.130;2023-04-06T04:45:15;12.37;;;11.13;;
5684;SDS011;2865;53.114;9.130;2023-04-06T04:47:40;11.47;;;10.30;;
5684;SDS011;2865;53.114;9.130;2023-04-06T04:50:06;17.90;;;10.73;;
5684;SDS011;2865;53.114;9.130;2023-04-06T04:52:32;11.47;;;10.33;;
5684;SDS011;2865;53.114;9.130;2023-04-06T04:54:57;13.63;;;11.80;;
5684;SDS011;2865;53.114;9.130;2023-04-06T04:57:23;12.20;;;10.70;;
5684;SDS011;2865;53.114;9.130;2023-04-06T04:59:48;11.90;;;10.43;;
5684;SDS011;2865;53.114;9.130;2023-04-06T05:02:14;11.70;;;10.60;;
5684;SDS011;2865;53.114;9.130;2023-04-06T05:04:39;12.00;;;10.80;;
5684;SDS011;2865;53.114;9.130;2023-04-06T05:07:05;16.23;;;10.17;;
5684;SDS011;2865;53.114;9.130;2023-04-06T05:09:30;11.37;;;10.20;;
5684;SDS011;2865;53.114;9.130;2023-04-06T05:11:55;12.60;;;10.40;;
5684;SDS011;2865;53.114;9.130;2023-04-06T05:14:21;11.90;;;10.20;;
5684;SDS011;2865;53.114;9.130;2023-04-06T05:16:46;14.60;;;11.10;;
5684;SDS011;2865;53.114;9.130;2023-04-06T05:19:12;11.27;;;10.20;;
5684;SDS011;2865;53.114;9.130;2023-04-06T05:21:37;11.77;;;10.57;;
5684;SDS011;2865;53.114;9.130;2023-04-06T05:24:03;12.27;;;10.57;;
5684;SDS011;2865;53.114;9.130;2023-04-06T05:26:28;17.43;;;10.03;;
5684;SDS011;2865;53.114;9.130;2023-04-06T05:28:54;11.53;;;10.37;;
5684;SDS011;2865;53.114;9.130;2023-04-06T05:31:19;12.70;;;10.60;;
5684;SDS011;2865;53.114;9.130;2023-04-06T05:33:45;15.60;;;11.27;;
5684;SDS011;2865;53.114;9.130;2023-04-06T05:36:10;12.23;;;10.93;;
5684;SDS011;2865;53.114;9.130;2023-04-06T05:38:35;31.57;;;10.30;;
5684;SDS011;2865;53.114;9.130;2023-04-06T05:41:01;10.90;;;9.80;;
5684;SDS011;2865;53.114;9.130;2023-04-06T05:43:27;11.90;;;9.70;;
5684;SDS011;2865;53.114;9.130;2023-04-06T05:45:52;10.83;;;9.70;;
5684;SDS011;2865;53.114;9.130;2023-04-06T05:48:17;12.70;;;10.17;;
5684;SDS011;2865;53.114;9.130;2023-04-06T05:50:46;11.17;;;10.07;;
5684;SDS011;2865;53.114;9.130;2023-04-06T05:53:09;12.30;;;9.80;;
5684;SDS011;2865;53.114;9.130;2023-04-06T05:55:34;11.90;;;9.50;;
5684;SDS011;2865;53.114;9.130;2023-04-06T05:58:00;10.17;;;9.27;;
5684;SDS011;2865;53.114;9.130;2023-04-06T06:00:25;11.60;;;10.40;;
5684;SDS011;2865;53.114;9.130;2023-04-06T06:02:50;10.10;;;9.07;;
5684;SDS011;2865;53.114;9.130;2023-04-06T06:05:16;10.43;;;9.53;;
5684;SDS011;2865;53.114;9.130;2023-04-06T06:07:41;12.40;;;11.10;;
5684;SDS011;2865;53.114;9.130;2023-04-06T06:10:08;14.23;;;11.03;;
5684;SDS011;2865;53.114;9.130;2023-04-06T06:12:34;17.80;;;9.73;;
5684;SDS011;2865;53.114;9.130;2023-04-06T06:15:00;10.00;;;9.00;;
5684;SDS011;2865;53.114;9.130;2023-04-06T06:17:25;11.00;;;8.83;;
5684;SDS011;2865;53.114;9.130;2023-04-06T06:19:51;12.27;;;10.10;;
5684;SDS011;2865;53.114;9.130;2023-04-06T06:22:16;9.90;;;8.87;;
5684;SDS011;2865;53.114;9.130;2023-04-06T06:24:42;10.23;;;9.23;;
5684;SDS011;2865;53.114;9.130;2023-04-06T06:27:07;11.17;;;10.07;;
5684;SDS011;2865;53.114;9.130;2023-04-06T06:29:32;10.17;;;9.17;;
5684;SDS011;2865;53.114;9.130;2023-04-06T06:31:58;11.10;;;9.53;;
5684;SDS011;2865;53.114;9.130;2023-04-06T06:34:23;11.60;;;9.40;;
5684;SDS011;2865;53.114;9.130;2023-04-06T06:36:49;10.37;;;9.37;;
5684;SDS011;2865;53.114;9.130;2023-04-06T06:39:14;10.03;;;8.90;;
5684;SDS011;2865;53.114;9.130;2023-04-06T06:41:40;13.53;;;8.93;;
5684;SDS011;2865;53.114;9.130;2023-04-06T06:44:05;9.23;;;8.33;;
5684;SDS011;2865;53.114;9.130;2023-04-06T06:46:31;9.87;;;9.00;;
5684;SDS011;2865;53.114;9.130;2023-04-06T06:48:56;8.83;;;7.93;;
5684;SDS011;2865;53.114;9.130;2023-04-06T06:51:21;8.83;;;7.70;;
5684;SDS011;2865;53.114;9.130;2023-04-06T06:53:47;10.27;;;8.97;;
5684;SDS011;2865;53.114;9.130;2023-04-06T06:56:12;11.67;;;7.93;;
5684;SDS011;2865;53.114;9.130;2023-04-06T06:58:38;9.70;;;8.80;;
5684;SDS011;2865;53.114;9.130;2023-04-06T07:01:03;9.83;;;8.50;;
5684;SDS011;2865;53.114;9.130;2023-04-06T07:03:29;8.23;;;7.43;;
5684;SDS011;2865;53.114;9.130;2023-04-06T07:05:55;7.90;;;7.27;;
5684;SDS011;2865;53.114;9.130;2023-04-06T07:08:20;8.60;;;7.80;;
5684;SDS011;2865;53.114;9.130;2023-04-06T07:10:45;9.07;;;8.07;;
5684;SDS011;2865;53.114;9.130;2023-04-06T07:13:11;8.60;;;7.90;;
5684;SDS011;2865;53.114;9.130;2023-04-06T07:15:36;7.00;;;6.40;;
5684;SDS011;2865;53.114;9.130;2023-04-06T07:18:01;7.40;;;6.80;;
5684;SDS011;2865;53.114;9.130;2023-04-06T07:20:27;8.07;;;7.27;;
5684;SDS011;2865;53.114;9.130;2023-04-06T07:22:52;7.00;;;6.30;;
5684;SDS011;2865;53.114;9.130;2023-04-06T07:25:18;7.30;;;6.60;;
5684;SDS011;2865;53.114;9.130;2023-04-06T07:27:43;7.23;;;6.50;;
5684;SDS011;2865;53.114;9.130;2023-04-06T07:30:09;11.00;;;6.50;;
5684;SDS011;2865;53.114;9.130;2023-04-06T07:32:35;7.70;;;6.83;;
5684;SDS011;2865;53.114;9.130;2023-04-06T07:35:00;7.87;;;6.40;;
5684;SDS011;2865;53.114;9.130;2023-04-06T07:37:26;5.97;;;5.37;;
5684;SDS011;2865;53.114;9.130;2023-04-06T07:39:51;9.20;;;6.10;;
5684;SDS011;2865;53.114;9.130;2023-04-06T07:42:17;6.23;;;5.60;;
5684;SDS011;2865;53.114;9.130;2023-04-06T07:44:42;9.30;;;6.73;;
5684;SDS011;2865;53.114;9.130;2023-04-06T07:47:08;8.23;;;6.17;;
5684;SDS011;2865;53.114;9.130;2023-04-06T07:49:33;6.00;;;5.50;;
5684;SDS011;2865;53.114;9.130;2023-04-06T07:51:59;8.67;;;5.90;;
5684;SDS011;2865;53.114;9.130;2023-04-06T07:54:25;12.20;;;5.80;;
5684;SDS011;2865;53.114;9.130;2023-04-06T07:56:50;7.27;;;5.80;;
5684;SDS011;2865;53.114;9.130;2023-04-06T07:59:16;6.63;;;5.50;;
5684;SDS011;2865;53.114;9.130;2023-04-06T08:01:41;7.17;;;6.30;;
5684;SDS011;2865;53.114;9.130;2023-04-06T08:04:07;6.43;;;5.80;;
5684;SDS011;2865;53.114;9.130;2023-04-06T08:06:32;7.43;;;5.37;;
5684;SDS011;2865;53.114;9.130;2023-04-06T08:08:57;7.50;;;5.90;;
5684;SDS011;2865;53.114;9.130;2023-04-06T08:11:23;7.90;;;6.07;;
5684;SDS011;2865;53.114;9.130;2023-04-06T08:13:48;6.13;;;5.73;;
5684;SDS011;2865;53.114;9.130;2023-04-06T08:16:14;6.90;;;5.60;;
5684;SDS011;2865;53.114;9.130;2023-04-06T08:18:39;6.27;;;5.67;;
5684;SDS011;2865;53.114;9.130;2023-04-06T08:21:05;7.10;;;6.00;;
5684;SDS011;2865;53.114;9.130;2023-04-06T08:23:30;8.40;;;6.50;;
5684;SDS011;2865;53.114;9.130;2023-04-06T08:25:55;7.87;;;5.93;;
5684;SDS011;2865;53.114;9.130;2023-04-06T08:28:21;6.33;;;5.63;;
5684;SDS011;2865;53.114;9.130;2023-04-06T08:30:47;6.93;;;6.00;;
5684;SDS011;2865;53.114;9.130;2023-04-06T08:33:12;5.67;;;5.10;;
5684;SDS011;2865;53.114;9.130;2023-04-06T08:35:37;6.70;;;5.70;;
5684;SDS011;2865;53.114;9.130;2023-04-06T08:38:03;10.20;;;5.50;;
5684;SDS011;2865;53.114;9.130;2023-04-06T08:40:28;6.10;;;5.60;;
5684;SDS011;2865;53.114;9.130;2023-04-06T08:42:54;5.60;;;5.00;;
5684;SDS011;2865;53.114;9.130;2023-04-06T08:45:19;5.87;;;5.30;;
5684;SDS011;2865;53.114;9.130;2023-04-06T08:47:44;7.03;;;6.17;;
5684;SDS011;2865;53.114;9.130;2023-04-06T08:50:10;6.00;;;5.40;;
5684;SDS011;2865;53.114;9.130;2023-04-06T08:52:36;6.63;;;5.90;;
5684;SDS011;2865;53.114;9.130;2023-04-06T08:55:02;6.90;;;5.40;;
5684;SDS011;2865;53.114;9.130;2023-04-06T08:57:28;6.70;;;5.20;;
5684;SDS011;2865;53.114;9.130;2023-04-06T08:59:54;7.30;;;5.87;;
5684;SDS011;2865;53.114;9.130;2023-04-06T09:02:19;8.80;;;5.57;;
5684;SDS011;2865;53.114;9.130;2023-04-06T09:04:45;6.43;;;5.77;;
5684;SDS011;2865;53.114;9.130;2023-04-06T09:07:10;6.37;;;5.77;;
5684;SDS011;2865;53.114;9.130;2023-04-06T09:09:36;5.90;;;5.30;;
5684;SDS011;2865;53.114;9.130;2023-04-06T09:12:01;6.90;;;5.50;;
5684;SDS011;2865;53.114;9.130;2023-04-06T09:14:35;5.77;;;5.27;;
5684;SDS011;2865;53.114;9.130;2023-04-06T09:17:03;7.60;;;6.10;;
5684;SDS011;2865;53.114;9.130;2023-04-06T09:19:28;8.97;;;5.70;;
5684;SDS011;2865;53.114;9.130;2023-04-06T09:24:26;8.07;;;5.43;;
5684;SDS011;2865;53.114;9.130;2023-04-06T09:26:51;6.40;;;5.80;;
5684;SDS011;2865;53.114;9.130;2023-04-06T09:29:21;6.13;;;5.50;;
5684;SDS011;2865;53.114;9.130;2023-04-06T09:31:47;6.23;;;5.63;;
5684;SDS011;2865;53.114;9.130;2023-04-06T09:34:20;8.00;;;6.27;;
5684;SDS011;2865;53.114;9.130;2023-04-06T09:36:38;9.40;;;5.43;;
5684;SDS011;2865;53.114;9.130;2023-04-06T09:39:03;8.37;;;6.27;;
5684;SDS011;2865;53.114;9.130;2023-04-06T09:41:31;7.17;;;6.33;;
5684;SDS011;2865;53.114;9.130;2023-04-06T09:44:09;7.67;;;6.73;;
5684;SDS011;2865;53.114;9.130;2023-04-06T09:46:36;7.17;;;6.10;;
5684;SDS011;2865;53.114;9.130;2023-04-06T09:49:01;7.23;;;6.20;;
5684;SDS011;2865;53.114;9.130;2023-04-06T09:51:26;6.47;;;5.90;;
5684;SDS011;2865;53.114;9.130;2023-04-06T09:53:52;12.73;;;6.77;;
5684;SDS011;2865;53.114;9.130;2023-04-06T09:56:17;11.23;;;5.80;;
5684;SDS011;2865;53.114;9.130;2023-04-06T09:58:43;10.57;;;6.00;;
5684;SDS011;2865;53.114;9.130;2023-04-06T10:01:09;10.73;;;6.50;;
5684;SDS011;2865;53.114;9.130;2023-04-06T10:03:40;9.87;;;6.53;;
5684;SDS011;2865;53.114;9.130;2023-04-06T10:06:04;6.70;;;5.97;;
5684;SDS011;2865;53.114;9.130;2023-04-06T10:08:28;8.90;;;6.80;;
5684;SDS011;2865;53.114;9.130;2023-04-06T10:10:53;8.20;;;6.40;;
5684;SDS011;2865;53.114;9.130;2023-04-06T10:13:20;7.17;;;6.47;;
5684;SDS011;2865;53.114;9.130;2023-04-06T10:15:45;10.30;;;6.77;;
5684;SDS011;2865;53.114;9.130;2023-04-06T10:18:11;11.83;;;6.63;;
5684;SDS011;2865;53.114;9.130;2023-04-06T10:20:41;8.00;;;6.60;;
5684;SDS011;2865;53.114;9.130;2023-04-06T10:23:07;11.73;;;6.70;;
5684;SDS011;2865;53.114;9.130;2023-04-06T10:25:32;9.10;;;6.90;;
5684;SDS011;2865;53.114;9.130;2023-04-06T10:28:02;9.20;;;7.83;;
5684;SDS011;2865;53.114;9.130;2023-04-06T10:30:26;8.77;;;7.30;;
5684;SDS011;2865;53.114;9.130;2023-04-06T10:32:51;9.67;;;6.83;;
5684;SDS011;2865;53.114;9.130;2023-04-06T10:35:17;8.70;;;7.33;;
5684;SDS011;2865;53.114;9.130;2023-04-06T10:37:46;9.97;;;7.60;;
5684;SDS011;2865;53.114;9.130;2023-04-06T10:42:43;8.07;;;7.27;;
5684;SDS011;2865;53.114;9.130;2023-04-06T10:45:18;7.43;;;6.73;;
5684;SDS011;2865;53.114;9.130;2023-04-06T10:47:40;10.43;;;7.63;;
5684;SDS011;2865;53.114;9.130;2023-04-06T10:50:06;10.63;;;7.57;;
5684;SDS011;2865;53.114;9.130;2023-04-06T10:52:32;8.00;;;7.20;;
5684;SDS011;2865;53.114;9.130;2023-04-06T10:54:58;8.30;;;7.33;;
5684;SDS011;2865;53.114;9.130;2023-04-06T10:57:29;9.80;;;7.20;;
5684;SDS011;2865;53.114;9.130;2023-04-06T10:59:54;14.23;;;8.33;;
5684;SDS011;2865;53.114;9.130;2023-04-06T11:02:19;12.77;;;8.80;;
5684;SDS011;2865;53.114;9.130;2023-04-06T11:04:53;8.90;;;7.20;;
5684;SDS011;2865;53.114;9.130;2023-04-06T11:07:22;13.73;;;7.60;;
5684;SDS011;2865;53.114;9.130;2023-04-06T11:09:49;10.90;;;8.60;;
5684;SDS011;2865;53.114;9.130;2023-04-06T11:12:19;11.10;;;7.90;;
5684;SDS011;2865;53.114;9.130;2023-04-06T11:14:35;10.40;;;7.10;;
5684;SDS011;2865;53.114;9.130;2023-04-06T11:17:00;12.90;;;8.07;;
5684;SDS011;2865;53.114;9.130;2023-04-06T11:19:26;13.80;;;7.67;;
5684;SDS011;2865;53.114;9.130;2023-04-06T11:21:52;11.40;;;7.63;;
5684;SDS011;2865;53.114;9.130;2023-04-06T11:24:19;9.10;;;7.50;;
5684;SDS011;2865;53.114;9.130;2023-04-06T11:26:45;15.40;;;8.40;;
5684;SDS011;2865;53.114;9.130;2023-04-06T11:29:10;9.33;;;7.37;;
5684;SDS011;2865;53.114;9.130;2023-04-06T11:31:38;13.47;;;7.73;;
5684;SDS011;2865;53.114;9.130;2023-04-06T11:34:08;14.23;;;7.57;;
5684;SDS011;2865;53.114;9.130;2023-04-06T11:36:28;8.87;;;7.40;;
5684;SDS011;2865;53.114;9.130;2023-04-06T11:38:55;9.20;;;7.43;;
5684;SDS011;2865;53.114;9.130;2023-04-06T11:41:22;10.33;;;7.57;;
5684;SDS011;2865;53.114;9.130;2023-04-06T11:43:47;10.80;;;6.73;;
5684;SDS011;2865;53.114;9.130;2023-04-06T11:46:16;11.40;;;7.83;;
5684;SDS011;2865;53.114;9.130;2023-04-06T11:48:43;10.10;;;7.43;;
5684;SDS011;2865;53.114;9.130;2023-04-06T11:51:03;10.57;;;8.50;;
5684;SDS011;2865;53.114;9.130;2023-04-06T11:53:29;10.03;;;7.10;;
5684;SDS011;2865;53.114;9.130;2023-04-06T11:55:54;8.93;;;7.20;;
5684;SDS011;2865;53.114;9.130;2023-04-06T11:58:20;9.20;;;8.00;;
5684;SDS011;2865;53.114;9.130;2023-04-06T12:00:45;7.73;;;7.00;;
5684;SDS011;2865;53.114;9.130;2023-04-06T12:03:11;11.47;;;7.70;;
5684;SDS011;2865;53.114;9.130;2023-04-06T12:05:36;8.33;;;7.43;;
5684;SDS011;2865;53.114;9.130;2023-04-06T12:08:01;8.93;;;6.87;;
5684;SDS011;2865;53.114;9.130;2023-04-06T12:10:27;11.70;;;7.50;;
5684;SDS011;2865;53.114;9.130;2023-04-06T12:12:52;9.10;;;6.93;;
5684;SDS011;2865;53.114;9.130;2023-04-06T12:15:18;7.20;;;6.50;;
5684;SDS011;2865;53.114;9.130;2023-04-06T12:17:43;9.60;;;7.63;;
5684;SDS011;2865;53.114;9.130;2023-04-06T12:20:09;8.83;;;7.30;;
5684;SDS011;2865;53.114;9.130;2023-04-06T12:22:35;8.80;;;7.23;;
5684;SDS011;2865;53.114;9.130;2023-04-06T12:25:01;11.67;;;7.50;;
5684;SDS011;2865;53.114;9.130;2023-04-06T12:27:26;10.50;;;7.93;;
5684;SDS011;2865;53.114;9.130;2023-04-06T12:29:52;8.73;;;6.73;;
5684;SDS011;2865;53.114;9.130;2023-04-06T12:32:17;7.70;;;6.90;;
5684;SDS011;2865;53.114;9.130;2023-04-06T12:34:43;14.20;;;8.37;;
5684;SDS011;2865;53.114;9.130;2023-04-06T12:37:09;9.57;;;7.17;;
5684;SDS011;2865;53.114;9.130;2023-04-06T12:39:34;10.17;;;7.80;;
5684;SDS011;2865;53.114;9.130;2023-04-06T12:42:00;9.00;;;6.70;;
5684;SDS011;2865;53.114;9.130;2023-04-06T12:44:25;7.77;;;7.03;;
5684;SDS011;2865;53.114;9.130;2023-04-06T12:46:51;10.20;;;6.63;;
5684;SDS011;2865;53.114;9.130;2023-04-06T12:49:16;8.20;;;6.90;;
5684;SDS011;2865;53.114;9.130;2023-04-06T12:51:42;8.20;;;6.90;;
5684;SDS011;2865;53.114;9.130;2023-04-06T12:54:07;8.90;;;7.20;;
5684;SDS011;2865;53.114;9.130;2023-04-06T12:56:32;9.70;;;7.60;;
5684;SDS011;2865;53.114;9.130;2023-04-06T12:58:58;10.57;;;8.00;;
5684;SDS011;2865;53.114;9.130;2023-04-06T13:01:23;10.23;;;6.73;;
5684;SDS011;2865;53.114;9.130;2023-04-06T13:03:49;9.33;;;6.70;;
5684;SDS011;2865;53.114;9.130;2023-04-06T13:06:14;11.77;;;7.97;;
5684;SDS011;2865;53.114;9.130;2023-04-06T13:08:40;9.57;;;7.97;;
5684;SDS011;2865;53.114;9.130;2023-04-06T13:11:06;8.67;;;7.10;;
5684;SDS011;2865;53.114;9.130;2023-04-06T13:13:31;11.83;;;8.97;;
5684;SDS011;2865;53.114;9.130;2023-04-06T13:16:01;9.27;;;7.77;;
5684;SDS011;2865;53.114;9.130;2023-04-06T13:18:25;11.67;;;8.60;;
5684;SDS011;2865;53.114;9.130;2023-04-06T13:20:50;17.77;;;9.07;;
5684;SDS011;2865;53.114;9.130;2023-04-06T13:23:16;11.40;;;9.20;;
5684;SDS011;2865;53.114;9.130;2023-04-06T13:25:41;13.10;;;8.77;;
5684;SDS011;2865;53.114;9.130;2023-04-06T13:28:07;11.03;;;8.77;;
5684;SDS011;2865;53.114;9.130;2023-04-06T13:30:32;12.97;;;9.23;;
5684;SDS011;2865;53.114;9.130;2023-04-06T13:32:57;11.10;;;8.40;;
5684;SDS011;2865;53.114;9.130;2023-04-06T13:35:23;10.47;;;7.20;;
5684;SDS011;2865;53.114;9.130;2023-04-06T13:37:48;9.67;;;8.00;;
5684;SDS011;2865;53.114;9.130;2023-04-06T13:40:13;8.70;;;6.83;;
5684;SDS011;2865;53.114;9.130;2023-04-06T13:42:39;9.80;;;7.90;;
5684;SDS011;2865;53.114;9.130;2023-04-06T13:45:05;8.20;;;7.37;;
5684;SDS011;2865;53.114;9.130;2023-04-06T13:47:31;7.90;;;7.00;;
5684;SDS011;2865;53.114;9.130;2023-04-06T13:49:56;12.77;;;6.60;;
5684;SDS011;2865;53.114;9.130;2023-04-06T13:52:22;9.70;;;6.97;;
5684;SDS011;2865;53.114;9.130;2023-04-06T13:54:48;10.40;;;7.67;;
5684;SDS011;2865;53.114;9.130;2023-04-06T13:57:12;9.80;;;7.40;;
5684;SDS011;2865;53.114;9.130;2023-04-06T13:59:38;8.90;;;7.97;;
5684;SDS011;2865;53.114;9.130;2023-04-06T14:02:03;9.37;;;7.90;;
5684;SDS011;2865;53.114;9.130;2023-04-06T14:04:29;11.47;;;8.70;;
5684;SDS011;2865;53.114;9.130;2023-04-06T14:06:54;11.97;;;7.73;;
5684;SDS011;2865;53.114;9.130;2023-04-06T14:09:20;9.30;;;8.03;;
5684;SDS011;2865;53.114;9.130;2023-04-06T14:11:45;9.50;;;8.00;;
5684;SDS011;2865;53.114;9.130;2023-04-06T14:14:10;9.53;;;7.20;;
5684;SDS011;2865;53.114;9.130;2023-04-06T14:16:36;8.40;;;6.93;;
5684;SDS011;2865;53.114;9.130;2023-04-06T14:19:01;11.23;;;7.40;;
5684;SDS011;2865;53.114;9.130;2023-04-06T14:21:27;10.03;;;7.23;;
5684;SDS011;2865;53.114;9.130;2023-04-06T14:23:52;11.80;;;7.60;;
5684;SDS011;2865;53.114;9.130;2023-04-06T14:26:17;10.10;;;7.60;;
5684;SDS011;2865;53.114;9.130;2023-04-06T14:28:43;7.90;;;7.10;;
5684;SDS011;2865;53.114;9.130;2023-04-06T14:31:10;7.93;;;7.13;;
5684;SDS011;2865;53.114;9.130;2023-04-06T14:33:34;9.13;;;6.70;;
5684;SDS011;2865;53.114;9.130;2023-04-06T14:36:02;7.23;;;6.47;;
5684;SDS011;2865;53.114;9.130;2023-04-06T14:38:25;10.83;;;7.77;;
5684;SDS011;2865;53.114;9.130;2023-04-06T14:40:50;10.83;;;7.50;;
5684;SDS011;2865;53.114;9.130;2023-04-06T14:43:16;9.27;;;7.13;;
5684;SDS011;2865;53.114;9.130;2023-04-06T14:45:41;9.00;;;7.90;;
5684;SDS011;2865;53.114;9.130;2023-04-06T14:48:07;9.63;;;7.47;;
5684;SDS011;2865;53.114;9.130;2023-04-06T14:50:32;11.17;;;8.10;;
5684;SDS011;2865;53.114;9.130;2023-04-06T14:52:57;9.10;;;6.63;;
5684;SDS011;2865;53.114;9.130;2023-04-06T14:55:23;10.20;;;7.80;;
5684;SDS011;2865;53.114;9.130;2023-04-06T14:57:48;9.93;;;7.30;;